createdAt,value
2022-08-27T00:00:29.082Z,86.20
2022-08-27T00:02:56.028Z,86.50
2022-08-27T00:05:23.165Z,86.20
2022-08-27T00:07:50.507Z,86.10
2022-08-27T00:10:22.025Z,87.20
2022-08-27T00:12:48.989Z,86.30
2022-08-27T00:15:17.774Z,86.40
2022-08-27T00:17:46.161Z,85.60
2022-08-27T00:20:16.031Z,85.20
2022-08-27T00:22:43.424Z,85.10
2022-08-27T00:25:11.926Z,85.50
2022-08-27T00:27:39.800Z,86.40
2022-08-27T00:30:11.003Z,86.80
2022-08-27T00:32:37.840Z,86.80
2022-08-27T00:35:05.198Z,86.50
2022-08-27T00:37:32.371Z,86.80
2022-08-27T00:39:59.575Z,88.80
2022-08-27T00:42:26.701Z,89.30
2022-08-27T00:44:58.048Z,89.00
2022-08-27T00:47:27.632Z,89.70
2022-08-27T00:49:58.470Z,89.10
2022-08-27T00:52:30.165Z,89.20
2022-08-27T00:55:08.837Z,89.30
2022-08-27T00:57:39.011Z,88.10
2022-08-27T01:00:11.384Z,88.00
2022-08-27T01:02:38.426Z,87.70
2022-08-27T01:05:14.448Z,89.20
2022-08-27T01:07:45.914Z,89.60
2022-08-27T01:10:16.756Z,89.40
2022-08-27T01:12:44.105Z,89.90
2022-08-27T01:15:19.449Z,90.30
2022-08-27T01:17:48.275Z,90.10
2022-08-27T01:20:23.059Z,89.90
2022-08-27T01:23:01.764Z,90.00
2022-08-27T01:25:29.945Z,90.20
2022-08-27T01:27:59.048Z,90.00
2022-08-27T01:30:26.175Z,90.00
2022-08-27T01:32:54.202Z,90.10
2022-08-27T01:35:22.952Z,89.40
2022-08-27T01:37:53.455Z,88.90
2022-08-27T01:40:24.084Z,87.20
2022-08-27T01:42:55.279Z,87.40
2022-08-27T01:45:29.768Z,88.00
2022-08-27T01:47:58.335Z,88.60
2022-08-27T01:50:28.785Z,88.90
2022-08-27T01:52:56.216Z,88.60
2022-08-27T01:55:26.097Z,87.60
2022-08-27T01:57:54.070Z,89.20
2022-08-27T02:00:28.985Z,88.70
2022-08-27T02:02:57.214Z,87.90
2022-08-27T02:05:25.227Z,87.90
2022-08-27T02:07:52.548Z,89.20
2022-08-27T02:10:23.616Z,88.60
2022-08-27T02:12:51.456Z,89.00
2022-08-27T02:15:19.670Z,89.90
2022-08-27T02:20:15.142Z,90.10
2022-08-27T02:22:42.865Z,90.40
2022-08-27T02:25:11.610Z,90.90
2022-08-27T02:27:38.631Z,91.10
2022-08-27T02:30:06.735Z,91.40
2022-08-27T02:32:33.643Z,90.80
2022-08-27T02:35:01.341Z,90.40
2022-08-27T02:37:28.720Z,88.40
2022-08-27T02:39:55.698Z,88.10
2022-08-27T02:42:22.561Z,87.40
2022-08-27T02:44:49.552Z,86.50
2022-08-27T02:47:16.824Z,86.50
2022-08-27T02:49:44.313Z,86.50
2022-08-27T02:52:11.164Z,85.70
2022-08-27T02:54:38.088Z,86.10
2022-08-27T02:57:06.435Z,87.00
2022-08-27T02:59:33.300Z,85.50
2022-08-27T03:02:00.384Z,84.60
2022-08-27T03:04:28.028Z,84.50
2022-08-27T03:06:55.570Z,83.60
2022-08-27T03:09:22.405Z,84.80
2022-08-27T03:11:49.275Z,85.00
2022-08-27T03:14:16.114Z,84.10
2022-08-27T03:16:42.954Z,83.60
2022-08-27T03:19:11.017Z,84.00
2022-08-27T03:21:37.926Z,85.60
2022-08-27T03:24:09.388Z,86.40
2022-08-27T03:26:39.622Z,87.00
2022-08-27T03:29:07.299Z,86.90
2022-08-27T03:31:34.271Z,87.40
2022-08-27T03:34:04.031Z,86.80
2022-08-27T03:36:31.583Z,86.60
2022-08-27T03:38:58.992Z,86.00
2022-08-27T03:41:43.777Z,86.70
2022-08-27T03:44:21.431Z,86.00
2022-08-27T03:46:50.496Z,85.40
2022-08-27T03:49:20.749Z,86.80
2022-08-27T03:51:50.562Z,86.40
2022-08-27T03:54:17.817Z,86.10
2022-08-27T03:56:44.752Z,85.70
2022-08-27T03:59:11.575Z,84.20
2022-08-27T04:01:38.495Z,84.30
2022-08-27T04:04:05.419Z,82.60
2022-08-27T04:06:34.580Z,82.10
2022-08-27T04:09:01.604Z,81.90
2022-08-27T04:11:28.507Z,82.20
2022-08-27T04:13:55.971Z,82.30
2022-08-27T04:16:22.930Z,83.30
2022-08-27T04:18:49.921Z,83.10
2022-08-27T04:21:16.754Z,83.60
2022-08-27T04:23:44.322Z,82.70
2022-08-27T04:26:12.204Z,83.20
2022-08-27T04:28:39.255Z,84.30
2022-08-27T04:31:12.861Z,83.50
2022-08-27T04:33:50.491Z,83.00
2022-08-27T04:36:18.521Z,82.30
2022-08-27T04:38:45.525Z,83.10
2022-08-27T04:41:12.662Z,86.00
2022-08-27T04:43:39.790Z,87.30
2022-08-27T04:46:07.332Z,87.60
2022-08-27T04:48:34.625Z,88.20
2022-08-27T04:51:05.470Z,89.10
2022-08-27T04:53:33.655Z,89.20
2022-08-27T04:56:00.485Z,90.30
2022-08-27T04:58:27.353Z,90.00
2022-08-27T05:00:57.125Z,88.60
2022-08-27T05:03:24.794Z,89.60
2022-08-27T05:05:52.738Z,89.50
2022-08-27T05:08:20.133Z,88.60
2022-08-27T05:10:50.047Z,89.20
2022-08-27T05:13:19.276Z,88.10
2022-08-27T05:15:47.370Z,88.30
2022-08-27T05:18:14.623Z,87.50
2022-08-27T05:20:48.210Z,86.80
2022-08-27T05:23:16.759Z,87.10
2022-08-27T05:25:46.459Z,86.30
2022-08-27T05:28:15.166Z,86.80
2022-08-27T05:30:45.084Z,86.00
2022-08-27T05:33:22.217Z,85.90
2022-08-27T05:35:52.440Z,86.00
2022-08-27T05:38:20.495Z,85.50
2022-08-27T05:40:48.106Z,84.10
2022-08-27T05:43:17.173Z,82.70
2022-08-27T05:45:48.498Z,81.90
2022-08-27T05:48:16.721Z,83.10
2022-08-27T05:50:45.081Z,82.90
2022-08-27T05:53:12.890Z,84.00
2022-08-27T05:55:45.014Z,82.10
2022-08-27T05:58:13.800Z,81.80
2022-08-27T06:00:40.669Z,84.00
2022-08-27T06:03:07.476Z,84.30
2022-08-27T06:05:34.488Z,80.40
2022-08-27T06:08:01.615Z,84.30
2022-08-27T06:10:28.476Z,85.80
2022-08-27T06:12:57.150Z,86.60
2022-08-27T06:15:24.079Z,79.10
2022-08-27T06:17:51.020Z,77.20
2022-08-27T06:20:17.989Z,85.00
2022-08-27T06:22:44.837Z,79.70
2022-08-27T06:25:11.664Z,81.50
2022-08-27T06:27:38.478Z,78.70
2022-08-27T06:30:05.729Z,80.90
2022-08-27T06:32:32.570Z,79.00
2022-08-27T06:34:59.408Z,79.00
2022-08-27T06:37:26.269Z,78.20
2022-08-27T06:39:53.217Z,76.80
2022-08-27T06:42:20.129Z,72.10
2022-08-27T06:44:52.859Z,76.70
2022-08-27T06:47:21.185Z,78.20
2022-08-27T06:49:48.217Z,78.60
2022-08-27T06:52:15.649Z,77.20
2022-08-27T06:54:42.523Z,80.00
2022-08-27T06:57:09.356Z,80.00
2022-08-27T06:59:36.211Z,80.40
2022-08-27T07:02:06.551Z,79.10
2022-08-27T07:04:33.594Z,78.70
2022-08-27T07:07:01.939Z,81.30
2022-08-27T07:09:28.761Z,79.20
2022-08-27T07:11:55.587Z,78.90
2022-08-27T07:14:22.599Z,80.00
2022-08-27T07:16:49.547Z,78.80
2022-08-27T07:19:18.798Z,77.70
2022-08-27T07:21:45.638Z,81.90
2022-08-27T07:24:12.603Z,80.30
2022-08-27T07:26:42.842Z,80.90
2022-08-27T07:29:13.028Z,80.40
2022-08-27T07:31:39.895Z,83.20
2022-08-27T07:34:07.223Z,81.80
2022-08-27T07:36:35.374Z,84.20
2022-08-27T07:39:02.282Z,82.60
2022-08-27T07:41:34.186Z,81.40
2022-08-27T07:44:01.114Z,80.60
2022-08-27T07:46:28.069Z,78.80
2022-08-27T07:48:55.374Z,80.50
2022-08-27T07:51:23.828Z,77.20
2022-08-27T07:53:51.149Z,78.00
2022-08-27T07:56:18.150Z,78.30
2022-08-27T07:58:45.429Z,76.00
2022-08-27T08:01:13.301Z,73.70
2022-08-27T08:03:41.117Z,74.90
2022-08-27T08:06:11.311Z,76.20
2022-08-27T08:08:39.524Z,76.10
2022-08-27T08:11:14.103Z,70.80
2022-08-27T08:13:41.210Z,75.70
2022-08-27T08:16:08.347Z,72.60
2022-08-27T08:18:37.278Z,71.10
2022-08-27T08:21:07.377Z,74.40
2022-08-27T08:23:34.958Z,72.40
2022-08-27T08:26:02.278Z,74.40
2022-08-27T08:28:29.210Z,73.80
2022-08-27T08:30:58.989Z,72.70
2022-08-27T08:33:26.330Z,74.20
2022-08-27T08:35:53.492Z,72.00
2022-08-27T08:38:20.602Z,69.90
2022-08-27T08:40:52.444Z,72.70
2022-08-27T08:43:27.636Z,69.10
2022-08-27T08:45:57.049Z,67.70
2022-08-27T08:48:27.793Z,62.40
2022-08-27T08:51:02.089Z,62.30
2022-08-27T08:53:47.903Z,60.40
2022-08-27T08:56:48.492Z,63.60
2022-08-27T08:59:50.457Z,66.10
2022-08-27T09:02:17.783Z,65.50
2022-08-27T09:04:44.842Z,64.50
2022-08-27T09:07:35.981Z,64.50
2022-08-27T09:10:16.799Z,63.60
2022-08-27T09:12:43.723Z,65.90
2022-08-27T09:15:20.122Z,62.00
2022-08-27T09:17:47.053Z,63.20
2022-08-27T09:20:20.519Z,65.70
2022-08-27T09:23:11.430Z,64.80
2022-08-27T09:25:41.439Z,63.90
2022-08-27T09:28:20.811Z,66.10
2022-08-27T09:30:47.720Z,63.80
2022-08-27T09:33:14.589Z,60.40
2022-08-27T09:35:45.775Z,61.10
2022-08-27T09:38:31.683Z,63.40
2022-08-27T09:41:01.689Z,62.20
2022-08-27T09:43:30.098Z,63.10
2022-08-27T09:46:18.215Z,60.30
2022-08-27T09:48:45.248Z,62.60
2022-08-27T09:51:30.831Z,61.50
2022-08-27T09:54:01.022Z,59.80
2022-08-27T09:56:37.791Z,59.80
2022-08-27T09:59:10.844Z,61.60
2022-08-27T10:01:52.905Z,60.50
2022-08-27T10:04:37.966Z,62.60
2022-08-27T10:07:28.505Z,62.60
2022-08-27T10:10:04.962Z,61.20
2022-08-27T10:12:45.402Z,62.40
2022-08-27T10:15:14.154Z,65.20
2022-08-27T10:18:09.107Z,64.60
2022-08-27T10:21:02.218Z,63.80
2022-08-27T10:23:41.591Z,67.10
2022-08-27T10:26:41.764Z,65.00
2022-08-27T10:29:20.748Z,66.00
2022-08-27T10:31:59.130Z,66.60
2022-08-27T10:34:32.009Z,64.10
2022-08-27T10:37:40.167Z,64.60
2022-08-27T10:40:26.396Z,63.70
2022-08-27T10:43:03.225Z,63.30
2022-08-27T10:45:40.683Z,65.10
2022-08-27T10:48:16.250Z,67.50
2022-08-27T10:50:50.200Z,64.00
2022-08-27T10:53:26.426Z,64.50
2022-08-27T10:56:09.184Z,66.20
2022-08-27T10:58:39.152Z,65.30
2022-08-27T11:01:27.632Z,64.60
2022-08-27T11:04:13.232Z,63.50
2022-08-27T11:06:51.145Z,62.40
2022-08-27T11:09:22.797Z,64.40
2022-08-27T11:14:51.816Z,64.30
2022-08-27T11:17:59.421Z,61.90
2022-08-27T11:20:32.484Z,60.20
2022-08-27T11:23:17.833Z,63.90
2022-08-27T11:26:02.648Z,61.70
2022-08-27T11:28:50.949Z,61.60
2022-08-27T11:31:42.398Z,61.70
2022-08-27T11:34:25.929Z,61.00
2022-08-27T11:37:04.807Z,63.30
2022-08-27T11:39:47.598Z,62.30
2022-08-27T11:42:23.942Z,61.50
2022-08-27T11:44:55.917Z,62.20
2022-08-27T11:47:25.894Z,59.90
2022-08-27T11:50:07.392Z,61.90
2022-08-27T11:52:39.205Z,60.90
2022-08-27T11:55:29.963Z,60.00
2022-08-27T11:58:08.777Z,61.70
2022-08-27T12:00:41.602Z,60.20
2022-08-27T12:03:23.913Z,59.90
2022-08-27T12:05:53.974Z,62.00
2022-08-27T12:08:24.023Z,58.90
2022-08-27T12:11:02.846Z,58.40
2022-08-27T12:13:40.754Z,59.70
2022-08-27T12:16:25.461Z,59.30
2022-08-27T12:19:07.736Z,58.80
2022-08-27T12:22:04.013Z,59.20
2022-08-27T12:24:53.037Z,59.50
2022-08-27T12:27:22.707Z,56.20
2022-08-27T12:30:19.842Z,58.20
2022-08-27T12:32:49.506Z,58.10
2022-08-27T12:35:23.511Z,58.50
2022-08-27T12:37:56.927Z,59.30
2022-08-27T12:40:31.196Z,57.60
2022-08-27T12:43:13.182Z,56.20
2022-08-27T12:45:47.924Z,57.80
2022-08-27T12:48:19.534Z,57.20
2022-08-27T12:50:52.428Z,58.00
2022-08-27T12:53:46.984Z,57.50
2022-08-27T12:56:32.456Z,56.90
2022-08-27T12:59:37.208Z,57.70
2022-08-27T13:02:16.079Z,57.80
2022-08-27T13:04:43.779Z,58.70
2022-08-27T13:07:10.781Z,58.50
2022-08-27T13:09:39.643Z,60.40
2022-08-27T13:12:15.674Z,58.60
2022-08-27T13:14:42.571Z,59.90
2022-08-27T13:17:15.916Z,59.50
2022-08-27T13:19:57.590Z,59.80
2022-08-27T13:22:28.968Z,58.90
2022-08-27T13:24:57.359Z,60.40
2022-08-27T13:27:26.970Z,58.80
2022-08-27T13:29:54.761Z,59.10
2022-08-27T13:32:24.642Z,56.90
2022-08-27T13:34:51.735Z,58.20
2022-08-27T13:37:25.834Z,56.40
2022-08-27T13:39:55.621Z,55.30
2022-08-27T13:42:24.302Z,56.10
2022-08-27T13:44:53.999Z,55.50
2022-08-27T13:47:26.611Z,55.60
2022-08-27T13:50:04.831Z,57.60
2022-08-27T13:52:34.765Z,54.90
2022-08-27T13:55:10.395Z,57.60
2022-08-27T13:57:49.779Z,58.80
2022-08-27T14:00:20.513Z,59.00
2022-08-27T14:02:56.281Z,62.40
2022-08-27T14:05:23.520Z,64.20
2022-08-27T14:08:13.395Z,66.00
2022-08-27T14:10:43.845Z,64.60
2022-08-27T14:13:22.342Z,64.50
2022-08-27T14:15:54.831Z,64.90
2022-08-27T14:18:58.012Z,66.60
2022-08-27T14:21:22.330Z,69.00
2022-08-27T14:23:50.140Z,70.10
2022-08-27T14:26:17.850Z,67.60
2022-08-27T14:28:45.999Z,65.40
2022-08-27T14:31:13.932Z,63.00
2022-08-27T14:33:41.156Z,66.60
2022-08-27T14:36:09.544Z,59.10
2022-08-27T14:38:41.055Z,63.40
2022-08-27T14:41:08.683Z,62.80
2022-08-27T14:43:35.893Z,60.50
2022-08-27T14:46:03.717Z,59.40
2022-08-27T14:48:33.146Z,57.70
2022-08-27T14:51:04.265Z,57.80
2022-08-27T14:53:31.146Z,57.30
2022-08-27T14:55:58.023Z,54.60
2022-08-27T14:58:24.920Z,56.70
2022-08-27T15:00:51.885Z,55.50
2022-08-27T15:03:18.784Z,56.70
2022-08-27T15:05:45.762Z,57.70
2022-08-27T15:08:14.702Z,56.80
2022-08-27T15:10:42.377Z,57.10
2022-08-27T15:13:09.233Z,56.10
2022-08-27T15:15:36.164Z,55.70
2022-08-27T15:18:03.575Z,55.80
2022-08-27T15:20:31.649Z,56.90
2022-08-27T15:22:58.656Z,57.00
2022-08-27T15:25:25.972Z,56.90
2022-08-27T15:27:52.890Z,57.10
2022-08-27T15:30:26.264Z,57.20
2022-08-27T15:32:53.390Z,56.60
2022-08-27T15:35:23.186Z,56.20
2022-08-27T15:37:50.026Z,56.60
2022-08-27T15:40:18.713Z,56.00
2022-08-27T15:42:53.399Z,55.80
2022-08-27T15:45:20.487Z,56.20
2022-08-27T15:47:52.701Z,56.70
2022-08-27T15:50:19.669Z,56.30
2022-08-27T15:52:47.240Z,55.30
2022-08-27T15:55:23.862Z,56.90
2022-08-27T15:57:50.877Z,56.50
2022-08-27T16:00:18.838Z,57.20
2022-08-27T16:02:46.567Z,57.30
2022-08-27T16:05:15.760Z,58.20
2022-08-27T16:07:43.533Z,58.50
2022-08-27T16:10:11.996Z,58.30
2022-08-27T16:12:38.916Z,58.90
2022-08-27T16:15:07.010Z,58.90
2022-08-27T16:17:35.320Z,59.60
2022-08-27T16:20:02.398Z,62.80
2022-08-27T16:22:29.316Z,61.80
2022-08-27T16:24:56.142Z,63.10
2022-08-27T16:27:23.053Z,65.10
2022-08-27T16:29:49.872Z,64.40
2022-08-27T16:32:18.812Z,64.40
2022-08-27T16:34:46.722Z,66.70
2022-08-27T16:37:13.922Z,65.90
2022-08-27T16:39:41.990Z,66.90
2022-08-27T16:42:10.283Z,67.80
2022-08-27T16:44:37.950Z,69.40
2022-08-27T16:47:06.440Z,68.00
2022-08-27T16:49:33.322Z,70.40
2022-08-27T16:52:00.122Z,70.60
2022-08-27T16:54:27.644Z,70.40
2022-08-27T16:56:54.980Z,70.90
2022-08-27T16:59:21.814Z,72.40
2022-08-27T17:01:51.992Z,72.10
2022-08-27T17:04:28.521Z,72.90
2022-08-27T17:06:57.256Z,74.50
2022-08-27T17:09:25.240Z,74.00
2022-08-27T17:11:57.470Z,74.60
2022-08-27T17:14:24.969Z,75.00
2022-08-27T17:16:51.903Z,75.10
2022-08-27T17:19:18.771Z,75.30
2022-08-27T17:21:45.831Z,76.00
2022-08-27T17:24:13.131Z,78.00
2022-08-27T17:26:40.528Z,78.30
2022-08-27T17:29:07.510Z,78.10
2022-08-27T17:31:36.813Z,79.00
2022-08-27T17:34:05.559Z,79.00
2022-08-27T17:36:33.161Z,77.70
2022-08-27T17:39:00.522Z,77.40
2022-08-27T17:41:33.447Z,79.00
2022-08-27T17:44:04.185Z,76.80
2022-08-27T17:46:31.170Z,77.20
2022-08-27T17:48:58.341Z,76.80
2022-08-27T17:51:25.919Z,74.90
2022-08-27T17:54:00.524Z,75.30
2022-08-27T17:56:29.646Z,76.20
2022-08-27T17:58:57.365Z,77.50
2022-08-27T18:01:32.314Z,76.90
2022-08-27T18:03:59.925Z,79.20
2022-08-27T18:06:27.887Z,81.00
2022-08-27T18:08:54.764Z,81.70
2022-08-27T18:11:21.713Z,80.80
2022-08-27T18:13:52.784Z,78.80
2022-08-27T18:16:20.476Z,76.20
2022-08-27T18:18:47.785Z,76.80
2022-08-27T18:21:25.058Z,77.50
2022-08-27T18:23:53.721Z,76.90
2022-08-27T18:26:23.517Z,76.90
2022-08-27T18:28:50.685Z,77.80
2022-08-27T18:31:19.612Z,77.20
2022-08-27T18:33:46.726Z,78.90
2022-08-27T18:36:13.683Z,78.60
2022-08-27T18:38:40.736Z,78.60
2022-08-27T18:41:08.366Z,78.50
2022-08-27T18:43:36.477Z,78.90
2022-08-27T18:46:05.048Z,78.00
2022-08-27T18:48:32.894Z,78.90
2022-08-27T18:51:01.919Z,77.70
2022-08-27T18:53:31.892Z,77.00
2022-08-27T18:56:01.348Z,77.80
2022-08-27T18:58:28.843Z,77.40
2022-08-27T19:00:59.350Z,78.00
2022-08-27T19:03:33.217Z,77.50
2022-08-27T19:06:01.216Z,77.70
2022-08-27T19:08:35.616Z,77.00
2022-08-27T19:11:02.796Z,77.50
2022-08-27T19:18:29.801Z,79.40
2022-08-27T19:20:56.867Z,79.30
2022-08-27T19:23:24.225Z,81.20
2022-08-27T19:25:51.533Z,88.90
2022-08-27T19:30:47.281Z,82.40
2022-08-27T19:33:14.106Z,84.10
2022-08-27T19:35:42.094Z,83.90
2022-08-27T19:38:12.436Z,84.00
2022-08-27T19:40:40.203Z,84.00
2022-08-27T19:43:07.803Z,85.10
2022-08-27T19:45:35.498Z,78.30
2022-08-27T19:48:07.850Z,77.40
2022-08-27T19:50:34.914Z,77.80
2022-08-27T19:53:01.791Z,78.30
2022-08-27T19:55:28.666Z,78.70
2022-08-27T19:57:55.756Z,79.30
2022-08-27T20:00:27.612Z,80.30
2022-08-27T20:02:55.380Z,81.80
2022-08-27T20:05:22.813Z,83.00
2022-08-27T20:07:52.521Z,84.10
2022-08-27T20:10:22.558Z,81.80
2022-08-27T20:12:50.120Z,81.80
2022-08-27T20:15:18.171Z,80.60
2022-08-27T20:17:45.257Z,81.50
2022-08-27T20:20:12.945Z,80.10
2022-08-27T20:22:39.854Z,79.10
2022-08-27T20:25:07.284Z,78.90
2022-08-27T20:27:34.333Z,80.10
2022-08-27T20:30:01.219Z,83.10
2022-08-27T20:32:30.038Z,85.60
2022-08-27T20:42:19.513Z,95.40
2022-08-27T20:44:47.055Z,82.40
2022-08-27T20:47:14.493Z,82.10
2022-08-27T20:49:41.482Z,82.60
2022-08-27T20:52:11.465Z,83.30
2022-08-27T20:54:39.299Z,82.60
2022-08-27T20:57:06.247Z,82.80
2022-08-27T20:59:33.067Z,82.20
2022-08-27T21:02:05.830Z,82.80
2022-08-27T21:04:41.139Z,84.50
2022-08-27T21:07:08.078Z,83.60
2022-08-27T21:09:56.302Z,83.20
2022-08-27T21:12:26.910Z,84.10
2022-08-27T21:14:55.875Z,82.50
2022-08-27T21:17:24.730Z,83.00
2022-08-27T21:19:52.227Z,79.90
2022-08-27T21:22:20.002Z,79.10
2022-08-27T21:24:46.839Z,80.30
2022-08-27T21:27:15.276Z,79.40
2022-08-27T21:29:42.119Z,81.10
2022-08-27T21:32:08.975Z,81.70
2022-08-27T21:34:35.813Z,82.40
2022-08-27T21:39:30.664Z,82.60
2022-08-27T21:41:57.522Z,83.50
2022-08-27T21:44:24.272Z,82.00
2022-08-27T21:46:51.426Z,83.40
2022-08-27T21:49:18.258Z,83.20
2022-08-27T21:51:45.153Z,83.10
2022-08-27T21:59:06.762Z,82.70
2022-08-27T22:01:33.719Z,83.60
2022-08-27T22:06:27.949Z,83.30
2022-08-27T22:08:54.847Z,83.70
2022-08-27T22:11:24.134Z,83.50
2022-08-27T22:13:51.730Z,84.30
2022-08-27T22:16:18.793Z,83.20
2022-08-27T22:18:45.617Z,82.10
2022-08-27T22:21:12.631Z,82.70
2022-08-27T22:23:39.430Z,80.80
2022-08-27T22:26:11.558Z,81.90
2022-08-27T22:28:38.386Z,82.00
2022-08-27T22:31:07.393Z,81.80
2022-08-27T22:33:34.381Z,80.10
2022-08-27T22:36:01.280Z,79.00
2022-08-27T22:38:28.286Z,78.40
2022-08-27T22:40:55.251Z,78.60
2022-08-27T22:43:22.105Z,78.80
2022-08-27T22:45:48.938Z,77.70
2022-08-27T22:48:15.822Z,78.90
2022-08-27T22:50:42.672Z,79.10
2022-08-27T22:53:09.729Z,79.60
2022-08-27T22:55:36.681Z,79.10
2022-08-27T22:58:04.338Z,79.50
2022-08-27T23:00:35.238Z,80.20
2022-08-27T23:03:04.472Z,80.00
2022-08-27T23:05:40.386Z,80.90
2022-08-27T23:08:11.121Z,82.00
2022-08-27T23:10:38.735Z,83.40
2022-08-27T23:13:06.827Z,83.90
2022-08-27T23:15:34.414Z,84.20
2022-08-27T23:18:01.242Z,85.20
2022-08-27T23:20:28.817Z,84.80
2022-08-27T23:22:56.613Z,85.90
2022-08-27T23:25:25.579Z,86.60
2022-08-27T23:27:52.466Z,85.90
2022-08-27T23:30:19.861Z,86.10
2022-08-27T23:32:49.815Z,86.00
2022-08-27T23:35:21.340Z,86.50
2022-08-27T23:37:49.038Z,85.20
2022-08-27T23:40:16.528Z,85.80
2022-08-27T23:42:45.952Z,87.20
2022-08-27T23:45:19.175Z,86.20
2022-08-27T23:47:46.221Z,86.20
2022-08-27T23:50:13.227Z,86.80
2022-08-27T23:52:40.191Z,87.80
2022-08-27T23:55:08.654Z,87.20
2022-08-27T23:57:35.572Z,87.40
